Hastings, United Kingdom
Current Conditions -  °F | °C
As of 11:50 AM on Saturday 22 Nov 2014 (Local Time) from EGMD Reporting Station
Broken Clouds Broken Clouds  
Wind Chill: 59°   Ceiling: 2000
Heat Index: 59°   Visibility: 5mi
Dew Point: 57°   Wind: 9mph
Humidity: 94%   Direction: 190°S
Pressure: 29.94"   Gusts: NA
Location:  50.86°N, 0.57°E
Report Text: EGMD 221150Z 19008KT 8000 SCT011 BKN020 15/14 Q1014
Loading
Personal Weather Stations






























Interactive Weather Map New forecast layout! Learn more

10-Day Weather Forecast

Advertisements
Track Severe Weather on mobile